createdAt,value
2023-05-19T00:05:20.821Z,7.40
2023-05-19T00:15:24.378Z,7.30
2023-05-19T00:25:28.914Z,7.40
2023-05-19T00:35:32.136Z,7.70
2023-05-19T00:45:36.788Z,7.30
2023-05-19T00:55:42.130Z,7.70
2023-05-19T01:05:47.641Z,7.40
2023-05-19T01:15:59.393Z,7.30
2023-05-19T01:26:43.064Z,7.40
2023-05-19T01:36:49.881Z,7.40
2023-05-19T01:46:53.135Z,7.30
2023-05-19T01:57:04.146Z,7.30
2023-05-19T02:07:15.714Z,7.40
2023-05-19T02:17:21.887Z,7.80
2023-05-19T02:27:26.339Z,7.50
2023-05-19T02:37:31.249Z,7.20
2023-05-19T02:47:36.909Z,7.70
2023-05-19T02:57:42.371Z,7.40
2023-05-19T03:07:46.064Z,7.60
2023-05-19T03:17:51.042Z,7.30
2023-05-19T03:27:54.369Z,7.50
2023-05-19T03:37:59.052Z,7.60
2023-05-19T03:48:02.682Z,8.20
2023-05-19T03:58:26.877Z,7.60
2023-05-19T04:08:30.455Z,8.10
2023-05-19T04:18:35.099Z,7.90
2023-05-19T04:28:40.136Z,8.20
2023-05-19T04:38:46.627Z,8.50
2023-05-19T04:48:51.164Z,8.70
2023-05-19T04:58:55.959Z,8.70
2023-05-19T05:09:00.009Z,8.90
2023-05-19T05:19:06.086Z,9.50
2023-05-19T05:29:10.376Z,9.80
2023-05-19T05:39:15.724Z,9.80
2023-05-19T05:49:21.912Z,9.90
2023-05-19T05:59:27.812Z,10.10
2023-05-19T06:09:31.268Z,10.10
2023-05-19T06:19:36.277Z,10.30
2023-05-19T06:29:41.563Z,10.40
2023-05-19T06:39:47.289Z,10.80
2023-05-19T06:49:55.240Z,11.10
2023-05-19T07:00:03.416Z,11.60
2023-05-19T07:10:08.087Z,12.80
2023-05-19T07:20:13.653Z,14.00
2023-05-19T07:30:17.068Z,14.00
2023-05-19T07:40:21.655Z,13.10
2023-05-19T07:50:25.536Z,12.90
2023-05-19T08:00:30.199Z,13.20
2023-05-19T08:10:33.721Z,12.70
2023-05-19T08:20:38.573Z,13.00
2023-05-19T08:30:41.798Z,12.70
2023-05-19T08:40:48.181Z,12.70
2023-05-19T08:50:58.481Z,12.70
2023-05-19T09:01:04.366Z,12.80
2023-05-19T09:11:07.705Z,12.70
2023-05-19T09:21:13.005Z,12.10
2023-05-19T09:31:16.478Z,12.70
2023-05-19T09:41:23.275Z,13.20
2023-05-19T09:51:26.727Z,13.20
2023-05-19T10:01:33.711Z,13.10
2023-05-19T10:11:37.204Z,13.10
2023-05-19T10:21:42.033Z,13.60
2023-05-19T10:31:46.440Z,13.80
2023-05-19T10:42:00.321Z,13.60
2023-05-19T10:52:03.665Z,13.80
2023-05-19T11:02:09.526Z,13.80
2023-05-19T11:12:12.802Z,14.40
2023-05-19T11:22:17.403Z,14.60
2023-05-19T11:32:21.896Z,14.80
2023-05-19T11:42:26.500Z,14.80
2023-05-19T11:52:29.742Z,15.00
2023-05-19T12:02:34.517Z,15.10
2023-05-19T12:12:37.910Z,15.90
2023-05-19T12:22:42.592Z,16.00
2023-05-19T12:32:49.158Z,15.20
2023-05-19T12:42:59.101Z,15.10
2023-05-19T12:53:02.612Z,14.60
2023-05-19T13:03:08.651Z,14.30
2023-05-19T13:13:12.036Z,13.80
2023-05-19T13:23:17.326Z,13.40
2023-05-19T13:33:20.556Z,13.40
2023-05-19T13:43:25.112Z,13.60
2023-05-19T13:53:29.694Z,13.10
2023-05-19T14:03:35.229Z,13.00
2023-05-19T14:13:41.898Z,12.40
2023-05-19T14:23:48.005Z,12.60
2023-05-19T14:33:53.848Z,12.60
2023-05-19T14:43:58.396Z,12.50
2023-05-19T14:54:02.340Z,12.50
2023-05-19T15:04:07.223Z,12.40
2023-05-19T15:14:10.496Z,12.20
2023-05-19T15:24:15.154Z,11.90
2023-05-19T15:34:18.478Z,11.60
2023-05-19T15:44:23.044Z,11.50
2023-05-19T15:54:26.411Z,11.50
2023-05-19T16:04:31.213Z,11.50
2023-05-19T16:14:36.690Z,11.20
2023-05-19T16:24:41.568Z,11.20
2023-05-19T16:34:44.785Z,11.30
2023-05-19T16:44:49.445Z,11.00
2023-05-19T16:54:52.697Z,10.90
2023-05-19T17:04:57.334Z,10.80
2023-05-19T17:15:00.594Z,10.60
2023-05-19T17:25:07.208Z,10.50
2023-05-19T17:35:10.848Z,10.30
2023-05-19T17:45:15.413Z,10.30
2023-05-19T17:55:19.809Z,10.30
2023-05-19T18:05:25.251Z,10.20
2023-05-19T18:15:28.443Z,10.10
2023-05-19T18:25:33.051Z,10.10
2023-05-19T18:35:37.089Z,10.00
2023-05-19T18:45:41.719Z,10.10
2023-05-19T18:55:45.238Z,9.90
2023-05-19T19:05:56.298Z,9.80
2023-05-19T19:16:01.947Z,9.70
2023-05-19T19:26:08.573Z,9.80
2023-05-19T19:36:11.882Z,9.80
2023-05-19T19:46:16.631Z,9.80
2023-05-19T19:56:20.079Z,9.70
2023-05-19T20:06:24.778Z,9.70
2023-05-19T20:16:28.402Z,9.70
2023-05-19T20:26:33.077Z,9.60
2023-05-19T20:36:36.682Z,9.60
2023-05-19T20:46:41.363Z,9.80
2023-05-19T20:56:44.708Z,9.50
2023-05-19T21:06:49.328Z,9.40
2023-05-19T21:16:54.366Z,9.40
2023-05-19T21:26:59.055Z,9.40
2023-05-19T21:37:02.260Z,9.40
2023-05-19T21:47:06.957Z,9.50
2023-05-19T21:57:11.215Z,9.40
2023-05-19T22:07:15.963Z,9.30
2023-05-19T22:17:19.239Z,9.30
2023-05-19T22:27:23.867Z,9.40
2023-05-19T22:37:28.911Z,9.40
2023-05-19T22:47:33.590Z,9.20
2023-05-19T22:57:36.824Z,9.10
2023-05-19T23:07:41.428Z,9.30
2023-05-19T23:17:44.735Z,9.20
2023-05-19T23:27:49.360Z,9.60
2023-05-19T23:37:54.120Z,9.10
2023-05-19T23:47:58.816Z,9.00
2023-05-19T23:58:02.140Z,8.90
